Hurlburt Field
KHRT : rendu visible

Aérodrome :











RETROUVEZ-NOUS SUR...

 
LOGIN :

S'inscrire | Disclaimer

   EN    FR    IT 

 









Légende :    VFR   VFR Marginal   IFR   IFR Intensif   IFR Très Intensif
Visi : 
Plafond : 
>= 8 km
>= 3000ft
5 à 8 km
1000 à 3000 ft
1500m à 5 km
500 à 1000 ft
800 à 1500m
200 à 500 ft
< 800m
< 200 ft
Symboles :   Orages  Brouillard  Fortes neiges  Fortes précipitations  Vent > 20 kt






- Altitude de l'aérodrome : 38 ft


KHRT - Hurlburt Field

DERNIER METAR :
  • 101023Z AUTO 01004KT 10SM FEW070 OVC110 18/16 A2985 RMK AO2 RAE23 SLP110 $

METARs EXPIRÉS :
  • 100956Z AUTO 36014KT 10SM -RA FEW095 OVC120 18/17 A2984 RMK AO2 SLP106 P0001 T01790166 $
  • 100856Z AUTO 01008KT 10SM -RA OVC110 18/17 A2983 RMK AO2 RAE20DZB20E27RAB50 SLP103 P0001 60032 T01790167 50009 $
  • 100827Z AUTO 02008KT 10SM SCT095 OVC130 18/17 A2984 RMK AO2 RAE20DZB20E27 SLP106 $
  • 100756Z 02008KT 10SM -RA FEW002 18/16 A2986 RMK AO2A PK WND 35032/10 TSB02E40 PRESFR SLP113 P0031 T01770162 $
  • 100750Z 36010KT 7SM RA SCT002 18/16 A2988 RMK AO2A TSB02E40 SLP120 $

TAF AMD TAF KHRT
Valide du 10 à 06h jusqu'au 11 à 08h UTC


100636Z 1006/1108 27007KT 9000 BR SCT025 BKN200 QNH2975INS
BECMG 1006/1007 01015KT 8000 -RA BKN025 QNH2981INS
TEMPO 1007/1010 31020G32KT 4800 RA BKN015 BKN150
BECMG 1012/1013 VRB06KT 9999 NSW SCT020 BKN250 QNH2995INS TX26/1018Z TN20/1014Z LAST NO AMDS AFT 1006 NEXT 1310



MET'MAP, la Météo Aéronautique d'un coup d'oeil ! - Copyright ORBIFLY Décembre 2007 - Disclaimer

ORBIFLY MET'MAP TEAM :

Programmation & Développement : Alexandra Zaïnal
Sur une idée originale de : Baudouin d'Aumeries
Assistance à la programmation : Marc-Olivier Méhu
Soutien technique & logistique : Manuel Goepfert

Contact : metmap@orbifly.com




SOURCES & CREDITS :

   NOAA       Earth
Advisory